sensor_id;sensor_type;location;lat;lon;timestamp;P1;durP1;ratioP1;P2;durP2;ratioP2
76749;SDS011;66447;35.844;14.468;2023-03-05T00:05:34;4.53;;;1.35;;
76749;SDS011;66447;35.844;14.468;2023-03-05T00:20:36;4.53;;;1.43;;
76749;SDS011;66447;35.844;14.468;2023-03-05T00:35:40;4.37;;;1.30;;
76749;SDS011;66447;35.844;14.468;2023-03-05T00:50:43;6.55;;;1.20;;
76749;SDS011;66447;35.844;14.468;2023-03-05T01:05:45;6.30;;;1.70;;
76749;SDS011;66447;35.844;14.468;2023-03-05T01:20:46;8.00;;;4.33;;
76749;SDS011;66447;35.844;14.468;2023-03-05T01:50:49;13.45;;;7.68;;
76749;SDS011;66447;35.844;14.468;2023-03-05T02:05:51;2.30;;;1.40;;
76749;SDS011;66447;35.844;14.468;2023-03-05T02:35:56;7.13;;;1.80;;
76749;SDS011;66447;35.844;14.468;2023-03-05T02:50:58;5.10;;;1.37;;
76749;SDS011;66447;35.844;14.468;2023-03-05T03:06:00;6.82;;;1.67;;
76749;SDS011;66447;35.844;14.468;2023-03-05T03:21:01;4.17;;;1.40;;
76749;SDS011;66447;35.844;14.468;2023-03-05T03:51:05;6.78;;;1.85;;
76749;SDS011;66447;35.844;14.468;2023-03-05T04:06:07;5.30;;;2.28;;
76749;SDS011;66447;35.844;14.468;2023-03-05T04:21:08;8.27;;;2.20;;
76749;SDS011;66447;35.844;14.468;2023-03-05T04:36:10;4.83;;;1.90;;
76749;SDS011;66447;35.844;14.468;2023-03-05T04:51:11;7.77;;;2.43;;
76749;SDS011;66447;35.844;14.468;2023-03-05T05:06:12;7.63;;;2.77;;
76749;SDS011;66447;35.844;14.468;2023-03-05T05:21:14;8.00;;;3.30;;
76749;SDS011;66447;35.844;14.468;2023-03-05T05:36:17;7.38;;;3.50;;
76749;SDS011;66447;35.844;14.468;2023-03-05T05:51:21;8.07;;;2.78;;
76749;SDS011;66447;35.844;14.468;2023-03-05T06:06:24;8.20;;;1.90;;
76749;SDS011;66447;35.844;14.468;2023-03-05T06:21:26;3.53;;;1.45;;
76749;SDS011;66447;35.844;14.468;2023-03-05T06:36:28;7.32;;;1.80;;
76749;SDS011;66447;35.844;14.468;2023-03-05T06:51:31;5.57;;;1.70;;
76749;SDS011;66447;35.844;14.468;2023-03-05T07:06:35;7.30;;;1.90;;
76749;SDS011;66447;35.844;14.468;2023-03-05T07:21:38;11.18;;;2.67;;
76749;SDS011;66447;35.844;14.468;2023-03-05T07:51:41;10.87;;;2.47;;
76749;SDS011;66447;35.844;14.468;2023-03-05T08:06:42;11.03;;;2.90;;
76749;SDS011;66447;35.844;14.468;2023-03-05T08:21:46;8.52;;;2.47;;
76749;SDS011;66447;35.844;14.468;2023-03-05T08:36:48;11.48;;;3.25;;
76749;SDS011;66447;35.844;14.468;2023-03-05T09:07:01;10.47;;;2.17;;
76749;SDS011;66447;35.844;14.468;2023-03-05T09:22:03;9.38;;;2.50;;
76749;SDS011;66447;35.844;14.468;2023-03-05T09:37:07;8.95;;;2.42;;
76749;SDS011;66447;35.844;14.468;2023-03-05T09:52:44;7.75;;;2.10;;
76749;SDS011;66447;35.844;14.468;2023-03-05T10:07:43;10.30;;;1.95;;
76749;SDS011;66447;35.844;14.468;2023-03-05T10:38:22;11.40;;;3.50;;
76749;SDS011;66447;35.844;14.468;2023-03-05T10:53:44;4.95;;;2.10;;
76749;SDS011;66447;35.844;14.468;2023-03-05T11:09:16;8.15;;;2.00;;
76749;SDS011;66447;35.844;14.468;2023-03-05T11:24:28;8.95;;;1.80;;
76749;SDS011;66447;35.844;14.468;2023-03-05T11:39:30;5.88;;;2.25;;
76749;SDS011;66447;35.844;14.468;2023-03-05T12:09:57;4.78;;;1.90;;
76749;SDS011;66447;35.844;14.468;2023-03-05T12:40:32;9.00;;;2.42;;
76749;SDS011;66447;35.844;14.468;2023-03-05T12:55:36;7.60;;;2.28;;
76749;SDS011;66447;35.844;14.468;2023-03-05T13:25:58;6.80;;;2.97;;
76749;SDS011;66447;35.844;14.468;2023-03-05T13:41:15;10.10;;;2.70;;
76749;SDS011;66447;35.844;14.468;2023-03-05T13:56:22;9.02;;;2.63;;
76749;SDS011;66447;35.844;14.468;2023-03-05T14:11:24;8.68;;;2.55;;
76749;SDS011;66447;35.844;14.468;2023-03-05T14:41:40;15.65;;;3.30;;
76749;SDS011;66447;35.844;14.468;2023-03-05T14:56:41;9.13;;;4.38;;
76749;SDS011;66447;35.844;14.468;2023-03-05T15:11:43;11.38;;;3.95;;
76749;SDS011;66447;35.844;14.468;2023-03-05T15:26:45;16.77;;;7.45;;
76749;SDS011;66447;35.844;14.468;2023-03-05T15:41:47;13.13;;;4.78;;
76749;SDS011;66447;35.844;14.468;2023-03-05T15:56:49;7.30;;;3.70;;
76749;SDS011;66447;35.844;14.468;2023-03-05T16:11:52;11.68;;;4.13;;
76749;SDS011;66447;35.844;14.468;2023-03-05T16:26:53;11.77;;;4.90;;
76749;SDS011;66447;35.844;14.468;2023-03-05T16:41:55;16.85;;;5.78;;
76749;SDS011;66447;35.844;14.468;2023-03-05T16:56:57;8.73;;;3.72;;
76749;SDS011;66447;35.844;14.468;2023-03-05T17:12:01;12.65;;;5.22;;
76749;SDS011;66447;35.844;14.468;2023-03-05T17:27:02;13.90;;;5.93;;
76749;SDS011;66447;35.844;14.468;2023-03-05T17:42:04;13.17;;;5.60;;
76749;SDS011;66447;35.844;14.468;2023-03-05T17:57:06;9.20;;;5.27;;
76749;SDS011;66447;35.844;14.468;2023-03-05T18:27:09;15.65;;;6.10;;
76749;SDS011;66447;35.844;14.468;2023-03-05T18:42:11;16.90;;;8.13;;
76749;SDS011;66447;35.844;14.468;2023-03-05T18:57:13;19.88;;;7.57;;
76749;SDS011;66447;35.844;14.468;2023-03-05T19:12:14;19.73;;;8.07;;
76749;SDS011;66447;35.844;14.468;2023-03-05T19:27:16;37.00;;;24.23;;
76749;SDS011;66447;35.844;14.468;2023-03-05T19:42:18;21.83;;;11.40;;
76749;SDS011;66447;35.844;14.468;2023-03-05T19:57:23;20.45;;;9.07;;
76749;SDS011;66447;35.844;14.468;2023-03-05T20:12:24;18.33;;;7.50;;
76749;SDS011;66447;35.844;14.468;2023-03-05T20:27:26;21.23;;;8.05;;
76749;SDS011;66447;35.844;14.468;2023-03-05T20:42:27;15.40;;;6.73;;
76749;SDS011;66447;35.844;14.468;2023-03-05T20:57:29;16.73;;;6.57;;
76749;SDS011;66447;35.844;14.468;2023-03-05T21:12:31;19.27;;;7.53;;
76749;SDS011;66447;35.844;14.468;2023-03-05T21:27:33;12.85;;;7.07;;
76749;SDS011;66447;35.844;14.468;2023-03-05T21:42:37;18.93;;;7.10;;
76749;SDS011;66447;35.844;14.468;2023-03-05T21:57:40;13.85;;;6.68;;
76749;SDS011;66447;35.844;14.468;2023-03-05T22:13:03;16.92;;;6.28;;
76749;SDS011;66447;35.844;14.468;2023-03-05T22:28:11;15.45;;;7.10;;
76749;SDS011;66447;35.844;14.468;2023-03-05T22:43:19;16.80;;;8.25;;
76749;SDS011;66447;35.844;14.468;2023-03-05T22:58:21;17.27;;;11.00;;
76749;SDS011;66447;35.844;14.468;2023-03-05T23:13:24;17.85;;;7.15;;
76749;SDS011;66447;35.844;14.468;2023-03-05T23:28:26;17.88;;;8.48;;
76749;SDS011;66447;35.844;14.468;2023-03-05T23:43:27;16.77;;;7.53;;
76749;SDS011;66447;35.844;14.468;2023-03-05T23:58:30;19.45;;;7.05;;
